Time;durP1;ratioP1;P1;durP2;ratioP2;P2;SDS_P1;SDS_P2;PMS_P1;PMS_P2;Temp;Humidity;BMP_temperature;BMP_pressure;BME280_temperature;BME280_humidity;BME280_pressure;Samples;Min_cycle;Max_cycle;Signal;HPM_P1;HPM_P2
2023/04/16 00:01:06;;;;;;;23.60;19.50;;;7.60;99.90;;;;;;5054057;28;20474;-72
2023/04/16 00:03:33;;;;;;;23.00;18.30;;;7.60;99.90;;;;;;5054974;28;20492;-71
2023/04/16 00:06:00;;;;;;;24.20;18.23;;;7.60;99.90;;;;;;5058143;28;20448;-71
2023/04/16 00:08:27;;;;;;;22.70;17.90;;;7.60;99.90;;;;;;5064665;28;20451;-72
2023/04/16 00:10:54;;;;;;;23.67;18.50;;;7.70;99.90;;;;;;5066799;28;20483;-72
2023/04/16 00:13:21;;;;;;;22.13;17.53;;;7.70;99.90;;;;;;5075165;28;20989;-73
2023/04/16 00:15:48;;;;;;;21.93;17.60;;;7.70;99.90;;;;;;5071609;28;20440;-71
2023/04/16 00:18:16;;;;;;;23.13;17.73;;;7.60;99.90;;;;;;5071987;28;21313;-72
2023/04/16 00:20:43;;;;;;;23.00;18.10;;;7.60;99.90;;;;;;5070705;28;20475;-70
2023/04/16 00:23:09;;;;;;;21.90;18.90;;;7.60;99.90;;;;;;5071782;28;20480;-71
2023/04/16 00:25:36;;;;;;;24.33;18.20;;;7.60;99.90;;;;;;5072504;28;20440;-70
2023/04/16 00:28:04;;;;;;;21.63;17.87;;;7.60;99.90;;;;;;5063758;28;20462;-71
2023/04/16 00:30:31;;;;;;;20.53;16.80;;;7.60;99.90;;;;;;5049915;28;20480;-70
2023/04/16 00:32:58;;;;;;;22.73;17.50;;;7.60;99.90;;;;;;5047913;28;20958;-70
2023/04/16 00:35:27;;;;;;;20.40;16.07;;;7.60;99.90;;;;;;5049118;28;20496;-71
2023/04/16 00:37:53;;;;;;;20.60;17.53;;;7.60;99.90;;;;;;5052503;28;20466;-70
2023/04/16 00:40:20;;;;;;;21.90;17.03;;;7.60;99.90;;;;;;5068137;28;20445;-71
2023/04/16 00:42:47;;;;;;;22.67;18.20;;;7.60;99.90;;;;;;5067852;28;20483;-71
2023/04/16 00:45:14;;;;;;;21.40;16.20;;;7.60;99.90;;;;;;5067459;28;20481;-71
2023/04/16 00:47:41;;;;;;;20.80;17.37;;;7.60;99.90;;;;;;5069132;28;20565;-71
2023/04/16 00:50:08;;;;;;;17.83;15.77;;;7.60;99.90;;;;;;5070329;28;20456;-70
2023/04/16 00:52:37;;;;;;;20.70;17.20;;;7.60;99.90;;;;;;5069554;28;20443;-70
2023/04/16 00:55:06;;;;;;;17.87;15.00;;;7.60;99.90;;;;;;5070496;28;20957;-70
2023/04/16 00:57:33;;;;;;;18.37;16.20;;;7.60;99.90;;;;;;5070083;28;20452;-70
2023/04/16 01:00:00;;;;;;;18.70;16.07;;;7.60;99.90;;;;;;5069040;28;20442;-69
2023/04/16 01:02:26;;;;;;;21.20;16.57;;;7.60;99.90;;;;;;5050173;28;20483;-69
2023/04/16 01:04:53;;;;;;;20.93;15.50;;;7.60;99.90;;;;;;5050286;28;20492;-69
2023/04/16 01:07:20;;;;;;;17.63;15.27;;;7.60;99.90;;;;;;5050119;28;20463;-70
2023/04/16 01:09:48;;;;;;;19.30;17.17;;;7.60;99.90;;;;;;5049817;28;20451;-70
2023/04/16 01:12:15;;;;;;;19.93;16.30;;;7.60;99.90;;;;;;5049781;28;20830;-72
2023/04/16 01:14:41;;;;;;;20.37;16.30;;;7.60;99.90;;;;;;5050466;28;20804;-71
2023/04/16 01:17:08;;;;;;;17.47;15.57;;;7.60;99.90;;;;;;5053213;28;20455;-71
2023/04/16 01:19:36;;;;;;;19.80;16.43;;;7.60;99.90;;;;;;5070295;28;20442;-71
2023/04/16 01:22:04;;;;;;;19.00;16.27;;;7.60;99.90;;;;;;5069864;28;20537;-70
2023/04/16 01:24:31;;;;;;;20.03;16.33;;;7.60;99.90;;;;;;5069401;28;20479;-70
2023/04/16 01:26:58;;;;;;;18.20;14.60;;;7.60;99.90;;;;;;5069777;28;20449;-70
2023/04/16 01:29:25;;;;;;;19.80;15.90;;;7.60;99.90;;;;;;5069273;28;20927;-68
2023/04/16 01:31:53;;;;;;;17.30;15.07;;;7.60;99.90;;;;;;5069695;28;20477;-70
2023/04/16 01:34:20;;;;;;;19.00;15.60;;;7.60;99.90;;;;;;5060276;28;20893;-70
2023/04/16 01:36:46;;;;;;;17.80;14.87;;;7.60;99.90;;;;;;5049604;28;21041;-71
2023/04/16 01:39:15;;;;;;;20.47;15.60;;;7.60;99.90;;;;;;5049606;28;20948;-71
2023/04/16 01:41:42;;;;;;;17.30;14.90;;;7.50;99.90;;;;;;5049202;28;20489;-71
2023/04/16 01:44:09;;;;;;;17.60;14.50;;;7.50;99.90;;;;;;5049539;28;20520;-70
2023/04/16 01:46:36;;;;;;;17.13;15.33;;;7.50;99.90;;;;;;5049247;28;20449;-71
2023/04/16 01:49:04;;;;;;;15.90;13.90;;;7.60;99.90;;;;;;5049779;28;20454;-71
2023/04/16 01:51:31;;;;;;;17.33;14.40;;;7.60;99.90;;;;;;5050373;28;20464;-71
2023/04/16 01:53:57;;;;;;;16.30;13.93;;;7.60;99.90;;;;;;5049876;28;20462;-71
2023/04/16 01:56:26;;;;;;;16.93;15.07;;;7.60;99.90;;;;;;5056015;28;20440;-71
2023/04/16 01:58:53;;;;;;;15.03;13.40;;;7.60;99.90;;;;;;5069360;28;20508;-72
2023/04/16 02:01:19;;;;;;;19.30;14.27;;;7.70;99.90;;;;;;5069411;28;20553;-72
2023/04/16 02:03:46;;;;;;;16.90;14.67;;;7.60;99.90;;;;;;5070643;28;20480;-70
2023/04/16 02:06:13;;;;;;;15.83;13.63;;;7.60;99.90;;;;;;5073803;28;20446;-72
2023/04/16 02:08:40;;;;;;;18.43;14.90;;;7.60;99.90;;;;;;5074764;28;20836;-72
2023/04/16 02:11:07;;;;;;;15.80;12.90;;;7.60;99.90;;;;;;5073077;28;20835;-71
2023/04/16 02:13:35;;;;;;;17.20;14.20;;;7.60;99.90;;;;;;5073404;28;20456;-71
2023/04/16 02:16:02;;;;;;;15.53;12.93;;;7.60;99.90;;;;;;5073275;28;20456;-71
2023/04/16 02:18:29;;;;;;;16.80;14.37;;;7.60;99.90;;;;;;5072725;28;20493;-69
2023/04/16 02:20:59;;;;;;;17.90;14.47;;;7.60;99.90;;;;;;5073271;28;20474;-69
2023/04/16 02:23:26;;;;;;;18.33;14.87;;;7.60;99.90;;;;;;5072390;28;20447;-70
2023/04/16 02:25:53;;;;;;;17.60;14.50;;;7.60;99.90;;;;;;5072972;28;20931;-71
2023/04/16 02:28:20;;;;;;;18.80;15.20;;;7.60;99.90;;;;;;5071713;28;20512;-70
2023/04/16 02:30:48;;;;;;;18.90;15.07;;;7.60;99.90;;;;;;5072533;28;20466;-70
2023/04/16 02:33:15;;;;;;;18.70;15.63;;;7.60;99.90;;;;;;5072494;28;20945;-70
2023/04/16 02:35:42;;;;;;;18.27;15.43;;;7.70;99.90;;;;;;5072599;28;20448;-69
2023/04/16 02:38:08;;;;;;;18.33;14.93;;;7.60;99.90;;;;;;5072738;28;20857;-70
2023/04/16 02:40:36;;;;;;;19.20;15.77;;;7.60;99.90;;;;;;5072795;28;20470;-70
2023/04/16 02:43:03;;;;;;;20.40;15.47;;;7.70;99.90;;;;;;5072173;28;20453;-71
2023/04/16 02:45:31;;;;;;;17.03;14.60;;;7.70;99.90;;;;;;5070781;28;20475;-70
2023/04/16 02:48:00;;;;;;;18.43;15.67;;;7.60;99.90;;;;;;5072256;28;20452;-70
2023/04/16 02:50:26;;;;;;;17.60;14.27;;;7.60;99.90;;;;;;5072542;28;20467;-71
2023/04/16 02:52:53;;;;;;;19.00;15.57;;;7.60;99.90;;;;;;5072077;28;20445;-70
2023/04/16 02:55:20;;;;;;;20.90;16.13;;;7.60;99.90;;;;;;5072544;28;20872;-70
2023/04/16 02:57:47;;;;;;;20.00;16.97;;;7.60;99.90;;;;;;5072428;28;20449;-70
2023/04/16 03:00:14;;;;;;;18.33;16.27;;;7.60;99.90;;;;;;5069852;28;20440;-69
2023/04/16 03:02:41;;;;;;;19.67;15.70;;;7.60;99.90;;;;;;5052026;28;20449;-71
2023/04/16 03:05:10;;;;;;;21.90;16.83;;;7.60;99.90;;;;;;5051825;28;20998;-71
2023/04/16 03:07:39;;;;;;;19.50;15.20;;;7.60;99.90;;;;;;5052062;28;20522;-71
2023/04/16 03:10:07;;;;;;;19.77;16.20;;;7.60;99.90;;;;;;5052181;28;20940;-70
2023/04/16 03:12:34;;;;;;;19.07;15.43;;;7.60;99.90;;;;;;5051870;28;20450;-71
2023/04/16 03:15:02;;;;;;;18.73;15.73;;;7.60;99.90;;;;;;5051707;28;20819;-70
2023/04/16 03:17:29;;;;;;;19.17;14.83;;;7.70;99.90;;;;;;5061426;28;20477;-70
2023/04/16 03:19:56;;;;;;;16.57;13.53;;;7.70;99.90;;;;;;5072258;28;20515;-71
2023/04/16 03:22:24;;;;;;;16.87;14.60;;;7.60;99.90;;;;;;5071777;28;20989;-70
2023/04/16 03:24:51;;;;;;;20.10;15.30;;;7.60;99.90;;;;;;5071827;28;20481;-70
2023/04/16 03:27:17;;;;;;;19.20;15.37;;;7.60;99.90;;;;;;5071990;28;20930;-70
2023/04/16 03:29:44;;;;;;;21.07;15.50;;;7.50;99.90;;;;;;5071679;28;20525;-71
2023/04/16 03:32:11;;;;;;;17.50;15.03;;;7.50;99.90;;;;;;5071745;28;20475;-70
2023/04/16 03:34:38;;;;;;;16.20;14.47;;;7.60;99.90;;;;;;5054442;28;20540;-71
2023/04/16 03:37:05;;;;;;;19.73;15.43;;;7.50;99.90;;;;;;5051602;28;20459;-71
2023/04/16 03:39:33;;;;;;;17.20;14.70;;;7.50;99.90;;;;;;5066956;28;20449;-71
2023/04/16 03:42:01;;;;;;;20.77;14.77;;;7.50;99.90;;;;;;5071330;28;20476;-71
2023/04/16 03:44:27;;;;;;;16.90;13.07;;;7.60;99.90;;;;;;5071250;28;20507;-71
2023/04/16 03:46:54;;;;;;;16.30;13.07;;;7.60;99.90;;;;;;5071370;28;20918;-71
2023/04/16 03:49:21;;;;;;;18.70;14.33;;;7.60;99.90;;;;;;5068814;28;20494;-71
2023/04/16 03:51:48;;;;;;;20.60;15.50;;;7.50;99.90;;;;;;5051590;28;20869;-71
2023/04/16 03:54:15;;;;;;;19.27;15.40;;;7.60;99.90;;;;;;5050900;28;20931;-71
2023/04/16 03:56:43;;;;;;;21.87;14.97;;;7.60;99.90;;;;;;5060353;28;20456;-71
2023/04/16 03:59:10;;;;;;;17.60;14.47;;;7.60;99.90;;;;;;5071176;28;20445;-72
2023/04/16 04:01:37;;;;;;;20.80;16.33;;;7.50;99.90;;;;;;5071315;28;20470;-71
2023/04/16 04:04:04;;;;;;;20.37;15.57;;;7.60;99.90;;;;;;5071377;28;20455;-71
2023/04/16 04:06:31;;;;;;;19.00;14.77;;;7.60;99.90;;;;;;5071421;28;20451;-71
2023/04/16 04:08:58;;;;;;;23.70;17.50;;;7.60;99.90;;;;;;5071573;28;20836;-71
2023/04/16 04:11:25;;;;;;;23.10;16.50;;;7.60;99.90;;;;;;5058340;28;20474;-70
2023/04/16 04:13:53;;;;;;;19.73;15.03;;;7.60;99.90;;;;;;5050739;28;20891;-70
2023/04/16 04:16:20;;;;;;;21.83;15.97;;;7.60;99.90;;;;;;5051102;28;20454;-71
2023/04/16 04:18:47;;;;;;;20.27;15.57;;;7.60;99.90;;;;;;5050967;28;20444;-70
2023/04/16 04:21:14;;;;;;;24.27;16.27;;;7.50;99.90;;;;;;5050802;28;20479;-71
2023/04/16 04:23:41;;;;;;;24.07;17.30;;;7.50;99.90;;;;;;5050324;28;21047;-71
2023/04/16 04:26:08;;;;;;;22.70;17.67;;;7.60;99.90;;;;;;5049953;28;20482;-71
2023/04/16 04:28:35;;;;;;;21.37;14.67;;;7.60;99.90;;;;;;5051722;28;20858;-72
2023/04/16 04:31:04;;;;;;;21.80;16.27;;;7.50;99.90;;;;;;5050478;28;20471;-72
2023/04/16 04:33:31;;;;;;;21.37;15.37;;;7.50;99.90;;;;;;5050242;28;20444;-70
2023/04/16 04:35:57;;;;;;;28.23;17.87;;;7.50;99.90;;;;;;5050439;28;20449;-70
2023/04/16 04:38:24;;;;;;;22.23;15.90;;;7.50;99.90;;;;;;5050682;28;20527;-71
2023/04/16 04:40:51;;;;;;;23.40;17.40;;;7.50;99.90;;;;;;5050201;28;20479;-71
2023/04/16 04:43:18;;;;;;;24.73;17.40;;;7.50;99.90;;;;;;5051216;28;20453;-70
2023/04/16 04:45:45;;;;;;;24.50;17.30;;;7.50;99.90;;;;;;5070502;28;20483;-70
2023/04/16 04:48:13;;;;;;;22.53;16.57;;;7.50;99.90;;;;;;5070111;28;20943;-70
2023/04/16 04:50:40;;;;;;;23.63;15.70;;;7.60;99.90;;;;;;5070406;28;20466;-71
2023/04/16 04:53:09;;;;;;;24.73;16.07;;;7.50;99.90;;;;;;5069835;28;20460;-71
2023/04/16 04:55:36;;;;;;;19.60;16.43;;;7.50;99.90;;;;;;5070194;28;20439;-70
2023/04/16 04:58:04;;;;;;;22.00;16.67;;;7.50;99.90;;;;;;5070134;28;20950;-70
2023/04/16 05:00:31;;;;;;;27.77;17.30;;;7.50;99.90;;;;;;5061417;28;20842;-71
2023/04/16 05:02:58;;;;;;;26.83;18.13;;;7.50;99.90;;;;;;5049880;28;20528;-70
2023/04/16 05:05:26;;;;;;;27.57;19.17;;;7.40;99.90;;;;;;5049850;28;20490;-71
2023/04/16 05:07:53;;;;;;;35.43;19.73;;;7.40;99.90;;;;;;5050150;28;20976;-71
2023/04/16 05:10:19;;;;;;;24.20;17.10;;;7.50;99.90;;;;;;5050880;28;21198;-71
2023/04/16 05:12:47;;;;;;;27.10;18.20;;;7.50;99.90;;;;;;5049828;28;21112;-70
2023/04/16 05:15:14;;;;;;;24.80;17.77;;;7.60;99.90;;;;;;5050240;28;20440;-71
2023/04/16 05:17:41;;;;;;;26.47;18.77;;;7.50;99.90;;;;;;5061103;28;20455;-71
2023/04/16 05:20:09;;;;;;;26.40;18.67;;;7.60;99.90;;;;;;5069925;28;20458;-71
2023/04/16 05:22:37;;;;;;;24.10;17.40;;;7.50;99.90;;;;;;5069328;28;20474;-70
2023/04/16 05:25:04;;;;;;;26.43;19.50;;;7.50;99.90;;;;;;5069895;28;21018;-71
2023/04/16 05:27:31;;;;;;;27.60;18.67;;;7.50;99.90;;;;;;5070108;28;20474;-71
2023/04/16 05:29:58;;;;;;;30.67;20.73;;;7.50;99.90;;;;;;5069771;28;20449;-71
2023/04/16 05:32:26;;;;;;;33.70;19.10;;;7.40;99.90;;;;;;5069609;28;20470;-72
2023/04/16 05:34:52;;;;;;;30.80;21.57;;;7.50;99.90;;;;;;5052396;28;20486;-71
2023/04/16 05:37:19;;;;;;;37.37;22.90;;;7.50;99.90;;;;;;5049538;28;20482;-71
2023/04/16 05:39:47;;;;;;;31.83;21.00;;;7.50;99.90;;;;;;5049744;28;20457;-71
2023/04/16 05:42:14;;;;;;;32.10;22.20;;;7.60;99.90;;;;;;5049286;28;20477;-71
2023/04/16 05:44:41;;;;;;;39.27;24.40;;;7.60;99.90;;;;;;5049470;28;20485;-71
2023/04/16 05:47:08;;;;;;;36.57;22.93;;;7.60;99.90;;;;;;5049358;28;20447;-69
2023/04/16 05:49:36;;;;;;;36.93;24.00;;;7.50;99.90;;;;;;5052350;28;20460;-70
2023/04/16 05:52:03;;;;;;;38.97;25.33;;;7.50;99.90;;;;;;5069432;28;20476;-70
2023/04/16 05:54:29;;;;;;;37.00;24.60;;;7.50;99.90;;;;;;5069297;28;20448;-71
2023/04/16 05:56:58;;;;;;;43.27;25.77;;;7.50;99.90;;;;;;5067914;28;20805;-71
2023/04/16 05:59:25;;;;;;;41.90;26.67;;;7.50;99.90;;;;;;5069600;28;20443;-72
2023/04/16 06:01:51;;;;;;;42.93;25.60;;;7.50;99.90;;;;;;5069917;28;20502;-71
2023/04/16 06:04:18;;;;;;;40.60;25.30;;;7.60;99.90;;;;;;5069043;28;20447;-72
2023/04/16 06:06:45;;;;;;;37.63;24.37;;;7.60;99.90;;;;;;5069767;28;20487;-71
2023/04/16 06:09:12;;;;;;;42.53;28.13;;;7.60;99.90;;;;;;5069710;28;20440;-71
2023/04/16 06:11:38;;;;;;;43.87;28.40;;;7.60;99.90;;;;;;5067444;28;20467;-71
2023/04/16 06:14:07;;;;;;;46.07;27.20;;;7.60;99.90;;;;;;5069363;28;20448;-71
2023/04/16 06:16:33;;;;;;;42.33;27.53;;;7.60;99.90;;;;;;5069100;28;20437;-71
2023/04/16 06:19:00;;;;;;;45.63;26.93;;;7.60;99.90;;;;;;5069320;28;20453;-71
2023/04/16 06:21:28;;;;;;;41.47;27.50;;;7.60;99.90;;;;;;5069525;28;20470;-71
2023/04/16 06:23:55;;;;;;;43.80;27.57;;;7.70;99.90;;;;;;5068844;28;20864;-71
2023/04/16 06:26:22;;;;;;;44.97;27.80;;;7.70;99.90;;;;;;5069362;28;20846;-71
2023/04/16 06:28:49;;;;;;;47.43;27.43;;;7.70;99.90;;;;;;5067545;28;20455;-72
2023/04/16 06:31:17;;;;;;;35.80;24.13;;;7.70;99.90;;;;;;5069211;28;20535;-71
2023/04/16 06:33:44;;;;;;;35.97;24.17;;;7.80;99.90;;;;;;5068812;28;20435;-71
2023/04/16 06:36:11;;;;;;;42.07;25.63;;;7.80;99.90;;;;;;5069262;28;20451;-71
2023/04/16 06:38:38;;;;;;;39.63;26.53;;;7.80;99.90;;;;;;5069343;28;20820;-71
2023/04/16 06:41:05;;;;;;;38.43;25.50;;;7.80;99.90;;;;;;5068700;28;20471;-71
2023/04/16 06:43:32;;;;;;;40.43;26.70;;;7.80;99.90;;;;;;5068880;28;20943;-71
2023/04/16 06:45:59;;;;;;;45.20;27.07;;;7.80;99.90;;;;;;5066929;28;20543;-71
2023/04/16 06:48:27;;;;;;;41.87;26.90;;;7.80;99.90;;;;;;5069392;28;20448;-71
2023/04/16 06:50:55;;;;;;;44.40;29.00;;;7.80;99.90;;;;;;5072402;28;20468;-72
2023/04/16 06:53:23;;;;;;;41.17;27.03;;;7.80;99.90;;;;;;5072524;28;21335;-71
2023/04/16 06:55:51;;;;;;;38.67;26.50;;;7.80;99.90;;;;;;5072826;28;20453;-71
2023/04/16 06:58:18;;;;;;;42.73;27.00;;;7.90;99.90;;;;;;5072223;28;20450;-71
2023/04/16 07:00:45;;;;;;;34.20;24.00;;;7.90;99.90;;;;;;5070555;28;20487;-71
2023/04/16 07:03:12;;;;;;;40.50;25.80;;;7.90;99.90;;;;;;5072269;28;20459;-71
2023/04/16 07:05:40;;;;;;;40.50;24.53;;;7.90;99.90;;;;;;5072192;28;20474;-71
2023/04/16 07:08:07;;;;;;;39.37;26.60;;;7.90;99.90;;;;;;5071839;28;20450;-71
2023/04/16 07:10:34;;;;;;;37.13;24.70;;;8.10;99.90;;;;;;5072000;28;20465;-71
2023/04/16 07:13:01;;;;;;;39.40;25.00;;;8.10;99.90;;;;;;5072047;28;20532;-71
2023/04/16 07:15:28;;;;;;;40.30;25.17;;;8.10;99.90;;;;;;5072029;28;20448;-71
2023/04/16 07:17:54;;;;;;;39.40;24.83;;;8.10;99.90;;;;;;5065649;28;20830;-70
2023/04/16 07:20:21;;;;;;;37.90;25.97;;;8.10;99.90;;;;;;5052279;28;20446;-70
2023/04/16 07:22:49;;;;;;;31.33;23.47;;;8.10;99.90;;;;;;5052023;28;20469;-71
2023/04/16 07:25:16;;;;;;;38.20;25.00;;;8.20;99.90;;;;;;5052026;28;20446;-70
2023/04/16 07:27:43;;;;;;;36.13;25.37;;;8.20;99.90;;;;;;5052180;28;20655;-69
2023/04/16 07:30:10;;;;;;;34.10;22.50;;;8.20;99.90;;;;;;5052224;28;20457;-68
2023/04/16 07:32:37;;;;;;;33.17;22.87;;;8.20;99.90;;;;;;5052241;28;20519;-69
2023/04/16 07:35:04;;;;;;;30.83;22.00;;;8.20;99.90;;;;;;5053010;28;20843;-67
2023/04/16 07:37:31;;;;;;;30.10;22.00;;;8.30;99.90;;;;;;5064240;28;20484;-68
2023/04/16 07:40:00;;;;;;;40.17;24.83;;;8.20;99.80;;;;;;5071814;28;20445;-66
2023/04/16 07:42:27;;;;;;;37.27;25.20;;;8.10;99.90;;;;;;5071438;28;20503;-67
2023/04/16 07:44:58;;;;;;;33.07;22.67;;;8.10;99.90;;;;;;5071769;28;20451;-67
2023/04/16 07:47:25;;;;;;;35.60;22.80;;;8.10;99.90;;;;;;5071744;28;20536;-67
2023/04/16 07:49:52;;;;;;;33.30;22.30;;;8.00;99.90;;;;;;5071834;28;20456;-67
2023/04/16 07:52:19;;;;;;;32.00;24.60;;;8.00;99.90;;;;;;5057247;28;21046;-67
2023/04/16 07:54:46;;;;;;;33.07;23.80;;;8.00;99.90;;;;;;5051793;28;20452;-66
2023/04/16 07:57:15;;;;;;;31.07;20.57;;;8.10;99.90;;;;;;5064890;28;20447;-67
2023/04/16 07:59:44;;;;;;;31.60;21.53;;;8.20;99.90;;;;;;5072056;28;20460;-67
2023/04/16 08:02:14;;;;;;;35.33;24.40;;;8.20;99.90;;;;;;5071755;28;20479;-69
2023/04/16 08:04:41;;;;;;;29.07;20.07;;;8.20;99.60;;;;;;5069300;28;20443;-67
2023/04/16 08:07:08;;;;;;;35.80;21.30;;;8.20;99.60;;;;;;5070405;28;20849;-68
2023/04/16 08:09:35;;;;;;;28.83;20.37;;;8.10;99.80;;;;;;5071405;28;20469;-68
2023/04/16 08:12:02;;;;;;;28.17;22.03;;;8.10;99.80;;;;;;5053920;28;20507;-67
2023/04/16 08:14:30;;;;;;;29.77;20.50;;;8.10;99.80;;;;;;5050907;28;20951;-66
2023/04/16 08:16:57;;;;;;;29.73;20.50;;;8.00;99.80;;;;;;5051369;28;20975;-67
2023/04/16 08:19:28;;;;;;;30.00;20.63;;;8.10;99.80;;;;;;5051355;28;20446;-67
2023/04/16 08:21:55;;;;;;;27.70;20.53;;;8.00;99.90;;;;;;5051003;28;20471;-67
2023/04/16 08:24:22;;;;;;;31.50;20.60;;;8.20;99.90;;;;;;5052104;28;20446;-67
2023/04/16 08:26:49;;;;;;;28.40;20.30;;;8.30;99.90;;;;;;5059880;28;20937;-69
2023/04/16 08:29:16;;;;;;;28.00;19.27;;;8.40;99.80;;;;;;5071010;28;20449;-68
2023/04/16 08:31:44;;;;;;;28.63;19.33;;;8.50;99.40;;;;;;5071482;28;20477;-68
2023/04/16 08:34:11;;;;;;;24.60;19.57;;;8.50;99.80;;;;;;5069941;28;20921;-67
2023/04/16 08:36:38;;;;;;;23.97;18.13;;;8.50;99.60;;;;;;5065238;28;20479;-68
2023/04/16 08:39:05;;;;;;;25.00;19.30;;;8.40;99.10;;;;;;5071823;28;20468;-70
2023/04/16 08:41:34;;;;;;;27.23;19.80;;;8.40;99.30;;;;;;5073203;28;20473;-70
2023/04/16 08:44:07;;;;;;;24.90;17.70;;;8.40;99.10;;;;;;5070132;28;20957;-68
2023/04/16 08:46:37;;;;;;;24.23;19.50;;;8.50;99.20;;;;;;5069993;28;20852;-69
2023/04/16 08:49:07;;;;;;;25.10;18.10;;;8.50;99.40;;;;;;5066674;28;20453;-68
2023/04/16 08:51:35;;;;;;;22.83;18.97;;;8.60;99.30;;;;;;5070270;28;20459;-69
2023/04/16 08:54:05;;;;;;;27.07;19.47;;;8.70;99.10;;;;;;5069731;28;20445;-66
2023/04/16 08:56:35;;;;;;;26.10;18.83;;;8.70;98.40;;;;;;5070641;28;21174;-69
2023/04/16 08:59:04;;;;;;;23.67;18.80;;;8.60;98.50;;;;;;5069766;28;20818;-68
2023/04/16 09:01:32;;;;;;;24.50;18.33;;;8.70;99.20;;;;;;5070193;28;20481;-68
2023/04/16 09:04:00;;;;;;;24.37;18.70;;;8.80;98.80;;;;;;5070038;28;20450;-68
2023/04/16 09:06:28;;;;;;;23.20;18.37;;;8.90;98.70;;;;;;5072526;28;20475;-68
2023/04/16 09:08:57;;;;;;;22.33;18.20;;;9.10;98.60;;;;;;5072886;28;20527;-68
2023/04/16 09:11:25;;;;;;;24.97;19.00;;;9.20;98.10;;;;;;5069114;28;20892;-68
2023/04/16 09:13:52;;;;;;;25.17;19.73;;;9.20;98.50;;;;;;5070308;28;20842;-69
2023/04/16 09:16:21;;;;;;;23.93;18.03;;;9.10;98.00;;;;;;5063143;28;20435;-69
2023/04/16 09:18:47;;;;;;;24.83;18.60;;;9.10;98.30;;;;;;5060543;28;20460;-69
2023/04/16 09:21:15;;;;;;;22.73;17.73;;;9.10;98.40;;;;;;5057663;28;20460;-68
2023/04/16 09:23:43;;;;;;;24.97;19.73;;;9.10;98.40;;;;;;5063284;28;20448;-68
2023/04/16 09:26:10;;;;;;;20.43;17.20;;;9.00;98.00;;;;;;5059835;28;20547;-68
2023/04/16 09:28:42;;;;;;;26.93;20.30;;;8.90;97.90;;;;;;5065702;28;20457;-68
2023/04/16 09:31:10;;;;;;;22.43;17.83;;;8.90;98.50;;;;;;5057644;28;20574;-68
2023/04/16 09:33:36;;;;;;;24.13;17.67;;;8.90;97.70;;;;;;5067347;28;20816;-68
2023/04/16 09:36:04;;;;;;;23.27;18.60;;;8.90;98.20;;;;;;5075717;28;20439;-67
2023/04/16 09:41:27;;;;;;;27.50;18.77;;;8.90;98.00;;;;;;5086691;27;20540;-68
2023/04/16 09:43:56;;;;;;;24.07;18.40;;;8.80;98.00;;;;;;5072665;28;20442;-67
2023/04/16 09:46:23;;;;;;;24.70;18.37;;;8.80;98.50;;;;;;5066557;28;20451;-68
2023/04/16 09:48:50;;;;;;;23.50;17.40;;;8.80;98.40;;;;;;5066321;28;20446;-67
2023/04/16 09:51:17;;;;;;;24.70;17.67;;;8.80;98.80;;;;;;5060375;28;20469;-66
2023/04/16 09:53:44;;;;;;;27.10;20.00;;;8.80;98.40;;;;;;5066053;28;20478;-67
2023/04/16 09:56:12;;;;;;;25.83;20.77;;;8.70;98.70;;;;;;5066213;28;20968;-66
2023/04/16 09:58:40;;;;;;;26.57;18.87;;;8.80;98.90;;;;;;5053687;28;20448;-67
2023/04/16 10:01:08;;;;;;;25.03;19.00;;;8.70;98.10;;;;;;5059622;28;20565;-67
2023/04/16 10:03:37;;;;;;;30.73;20.10;;;8.70;98.90;;;;;;5054578;28;20821;-67
2023/04/16 10:06:16;;;;;;;26.30;19.07;;;8.70;98.90;;;;;;5057575;28;20449;-68
2023/04/16 10:08:44;;;;;;;30.90;20.70;;;8.70;98.80;;;;;;5049649;28;20452;-67
2023/04/16 10:11:11;;;;;;;25.73;19.20;;;8.70;99.10;;;;;;5054838;28;20470;-68
2023/04/16 10:13:38;;;;;;;29.00;18.80;;;8.80;99.00;;;;;;5057565;28;20956;-67
2023/04/16 10:16:07;;;;;;;26.10;19.60;;;8.70;98.60;;;;;;5056512;28;20448;-67
2023/04/16 10:18:36;;;;;;;27.60;20.00;;;8.70;99.40;;;;;;5057055;28;20454;-67
2023/04/16 10:21:03;;;;;;;24.73;18.40;;;8.80;99.70;;;;;;5055752;28;20484;-68
2023/04/16 10:23:30;;;;;;;25.17;19.23;;;8.90;99.10;;;;;;5054195;28;21255;-67
2023/04/16 10:26:02;;;;;;;25.90;18.97;;;8.80;99.00;;;;;;5045688;28;20461;-67
2023/04/16 10:28:29;;;;;;;26.33;19.17;;;8.80;98.50;;;;;;5059547;28;20509;-68
2023/04/16 10:30:57;;;;;;;28.50;20.90;;;8.70;99.10;;;;;;5064338;28;20525;-67
2023/04/16 10:33:28;;;;;;;34.80;21.97;;;8.80;99.50;;;;;;5068701;28;20586;-68
2023/04/16 10:36:08;;;;;;;28.97;18.37;;;8.80;99.90;;;;;;5052565;28;20441;-68
2023/04/16 10:38:39;;;;;;;22.57;18.17;;;8.80;99.60;;;;;;5060833;28;20487;-67
2023/04/16 10:41:07;;;;;;;24.50;18.37;;;8.80;99.40;;;;;;5063599;28;20533;-67
2023/04/16 10:43:39;;;;;;;23.13;17.27;;;8.90;99.20;;;;;;5064793;28;20825;-68
2023/04/16 10:46:20;;;;;;;26.77;18.93;;;8.80;99.00;;;;;;5070150;28;21079;-68
2023/04/16 10:48:49;;;;;;;24.83;17.90;;;8.80;99.10;;;;;;5065767;28;20447;-68
2023/04/16 10:51:28;;;;;;;25.23;19.17;;;8.80;99.40;;;;;;5054165;28;20985;-67
2023/04/16 10:53:56;;;;;;;27.17;18.60;;;8.80;99.70;;;;;;5044182;28;20474;-68
2023/04/16 10:56:24;;;;;;;24.33;17.03;;;9.00;99.60;;;;;;5044787;28;20447;-67
2023/04/16 10:58:54;;;;;;;20.43;14.40;;;9.00;99.30;;;;;;5046153;28;21157;-68
2023/04/16 11:01:29;;;;;;;23.47;15.33;;;9.00;99.20;;;;;;5040574;28;20873;-67
2023/04/16 11:03:59;;;;;;;20.27;13.53;;;8.90;98.40;;;;;;5044514;28;20534;-67
2023/04/16 11:06:28;;;;;;;19.90;13.90;;;8.80;98.90;;;;;;5048962;28;20958;-73
2023/04/16 11:08:55;;;;;;;18.73;13.57;;;8.80;99.20;;;;;;5041109;28;20440;-68
2023/04/16 11:11:22;;;;;;;24.30;15.03;;;8.70;99.10;;;;;;5038363;28;20835;-68
2023/04/16 11:13:49;;;;;;;21.30;15.93;;;8.70;99.80;;;;;;5043796;28;20444;-69
2023/04/16 11:16:17;;;;;;;17.17;12.53;;;8.80;99.80;;;;;;5044995;28;20454;-70
2023/04/16 11:18:46;;;;;;;16.70;12.83;;;8.80;99.40;;;;;;5049109;28;20447;-68
2023/04/16 11:21:14;;;;;;;15.57;12.07;;;8.70;99.40;;;;;;5041342;28;21035;-69
2023/04/16 11:23:48;;;;;;;16.10;12.10;;;8.60;99.10;;;;;;5039742;28;20900;-67
2023/04/16 11:26:27;;;;;;;16.03;11.63;;;8.60;99.70;;;;;;5045106;28;20481;-71
2023/04/16 11:28:55;;;;;;;15.47;12.90;;;8.60;99.70;;;;;;5044839;28;20516;-68
2023/04/16 11:31:23;;;;;;;15.43;10.93;;;8.60;99.80;;;;;;5042409;28;20530;-68
2023/04/16 11:33:50;;;;;;;15.30;11.67;;;8.70;99.90;;;;;;5059240;28;20456;-72
2023/04/16 11:36:18;;;;;;;17.13;10.77;;;8.70;99.50;;;;;;5046978;28;20470;-69
2023/04/16 11:38:46;;;;;;;15.03;10.23;;;8.70;99.80;;;;;;5049447;28;20458;-69
2023/04/16 11:41:20;;;;;;;13.67;10.57;;;8.70;99.80;;;;;;5050018;28;20921;-70
2023/04/16 11:43:47;;;;;;;15.87;11.03;;;8.70;99.60;;;;;;5043901;28;20506;-69
2023/04/16 11:46:14;;;;;;;15.50;10.80;;;8.70;99.80;;;;;;5050987;28;20536;-69
2023/04/16 11:48:48;;;;;;;15.63;11.17;;;8.70;99.80;;;;;;5051787;28;20439;-70
2023/04/16 11:51:15;;;;;;;14.00;10.47;;;8.70;99.60;;;;;;5051484;28;20462;-69
2023/04/16 11:53:48;;;;;;;12.87;9.80;;;8.70;99.70;;;;;;5046412;28;20965;-69
2023/04/16 11:56:16;;;;;;;11.80;9.33;;;8.80;99.70;;;;;;5046592;28;20467;-70
2023/04/16 11:58:43;;;;;;;12.87;9.47;;;8.80;99.80;;;;;;5050592;28;20858;-69
2023/04/16 12:01:10;;;;;;;10.27;8.93;;;8.80;99.90;;;;;;5049439;28;20482;-69
2023/04/16 12:03:39;;;;;;;11.57;8.80;;;8.90;99.40;;;;;;5048508;28;20481;-69
2023/04/16 12:06:08;;;;;;;13.13;10.07;;;8.80;99.40;;;;;;5047130;28;20440;-70
2023/04/16 12:08:35;;;;;;;10.73;9.57;;;8.90;99.60;;;;;;5048992;28;20797;-70
2023/04/16 12:11:03;;;;;;;11.20;8.50;;;8.90;99.40;;;;;;5045516;28;20474;-70
2023/04/16 12:13:30;;;;;;;10.13;8.87;;;8.80;99.40;;;;;;5037023;28;20966;-71
2023/04/16 12:15:57;;;;;;;13.03;8.60;;;8.80;99.70;;;;;;5037408;28;20468;-69
2023/04/16 12:18:26;;;;;;;10.27;8.70;;;8.90;99.80;;;;;;5039887;28;20455;-68
2023/04/16 12:20:53;;;;;;;12.27;8.40;;;8.90;99.60;;;;;;5042445;28;20496;-68
2023/04/16 12:23:24;;;;;;;11.20;8.40;;;8.90;99.50;;;;;;5039581;28;20516;-70
2023/04/16 12:25:50;;;;;;;10.93;8.47;;;8.80;99.50;;;;;;5037932;28;20449;-69
2023/04/16 12:28:31;;;;;;;10.70;9.03;;;8.90;99.70;;;;;;5044798;28;20460;-74
2023/04/16 12:30:58;;;;;;;9.70;8.23;;;8.90;99.70;;;;;;5038208;28;20823;-70
2023/04/16 12:33:25;;;;;;;11.13;9.40;;;8.90;99.60;;;;;;5036503;28;20876;-70
2023/04/16 12:35:52;;;;;;;9.50;7.30;;;9.00;99.70;;;;;;5042759;28;20459;-70
2023/04/16 12:38:19;;;;;;;9.20;7.83;;;9.10;99.80;;;;;;5040728;28;20528;-71
2023/04/16 12:40:46;;;;;;;8.70;7.80;;;9.10;99.60;;;;;;5040693;28;20486;-69
2023/04/16 12:43:13;;;;;;;9.93;7.63;;;9.20;99.90;;;;;;5030255;28;20486;-70